This is the latest recevied weather packets stored in our database for station/object KR4ELZ. If no packets are shown the sender has not sent any weather packets the latest 10 day(s).
| Time | Temp. | Humidity | Pressure | Rain* | Wind** | Luminosity | Snow |
|---|---|---|---|---|---|---|---|
| 1777570139 | 18.33° C | 45% | 1016.3 hPa | 0 mm | - | 510 W/m² | - |
| 1777569835 | 18.33° C | 48% | 1016.3 hPa | 0 mm | - | 498 W/m² | - |
| 1777569531 | 18.33° C | 48% | 1016.2 hPa | 0 mm | - | 403 W/m² | - |
| 1777566804 | 17.78° C | 48% | 1017 hPa | 0 mm | - | 315 W/m² | - |
| 1777565896 | 17.78° C | 49% | 1016.7 hPa | 0 mm | - | 405 W/m² | - |
| 1777564679 | 17.78° C | 47% | 1016.5 hPa | 0 mm | - | 491 W/m² | - |
| 1777557402 | 14.44° C | 62% | 1016.4 hPa | 0 mm | - | 316 W/m² | - |
| 1777556491 | 14.44° C | 66% | 1016.7 hPa | 0 mm | - | 268 W/m² | - |
| 1777556190 | 13.89° C | 64% | 1016.6 hPa | 0 mm | - | 272 W/m² | - |
| 1777555582 | 13.33° C | 67% | 1016.2 hPa | 0 mm | - | 179 W/m² | - |
| 1777554975 | 12.78° C | 68% | 1016.3 hPa | 0 mm | - | 205 W/m² | - |
| 1777554672 | 13.33° C | 69% | 1016.3 hPa | 0 mm | - | 193 W/m² | - |
| 1777554369 | 12.78° C | 72% | 1016.3 hPa | 0 mm | - | 152 W/m² | - |
| 1777554066 | 13.33° C | 73% | 1016.4 hPa | 0 mm | - | 103 W/m² | - |
| 1777552551 | 11.11° C | 82% | 1016.6 hPa | 0 mm | - | 35 W/m² | - |
| 1777552248 | 11.11° C | 83% | 1016.6 hPa | 0 mm | - | 45 W/m² | - |
| 1777551944 | 11.11° C | 85% | 1016.7 hPa | 0 mm | - | 45 W/m² | - |
| 1777551642 | 10.56° C | 84% | 1016.7 hPa | 0 mm | - | 31 W/m² | - |
| 1777551340 | 10.56° C | 86% | 1016.6 hPa | 0 mm | - | 34 W/m² | - |
| 1777550733 | 10.56° C | 89% | 1016.6 hPa | 0 mm | - | 25 W/m² | - |
| 1777548002 | 10° C | 90% | 1015.8 hPa | 0 mm | - | 8 W/m² | - |
| 1777547394 | 10° C | 89% | 1015.9 hPa | 0 mm | - | 3 W/m² | - |
| 1777546485 | 10.56° C | 88% | 1015.7 hPa | 0 mm | - | 0 W/m² | - |
| 1777545879 | 10.56° C | 87% | 1015.8 hPa | 0 mm | - | 0 W/m² | - |
| 1777545575 | 10.56° C | 85% | 1015.5 hPa | 0 mm | - | 0 W/m² | - |
* Rain latest hour (hover to see other rain measurements)
** Current wind speed in m/s (hover to see current wind gust speed)